^^
Saratoga-Weather Station Historical Data
Daily Summary for February 27, 2020 Units:  English    Metric   Both
Daily Weekly Monthly Yearly Custom
  High: Low: Average:
Temperature: 54.5 °F 42.1 °F 46.9 °F
Dew Point: 44.6 °F 38.5 °F 40.1 °F
Humidity: 88% 64% 78%
Wind Speed: 0.9mph 0mph 0.1mph
Wind Gust: 2mph - -
Wind- - South
Pressure: 29.8 in 29.8 in -
Precipitation: 0 in    
Historical Graphs
 
 
Tabular Data for February 27, 2020
Time Temperature Dew Point Pressure Wind Wind Speed Wind Gust Humidity Rainfall Rate (Hourly) solar
00:02 52.7 °F 40.8 °F 29.8 in Calm     64% 0 in 0 W/m2
00:07 52.3 °F 41 °F 29.8 in Calm     65% 0 in 0 W/m2
00:12 52 °F 40.6 °F 29.8 in Calm   1 mph 65% 0 in 0 W/m2
00:17 52 °F 40.6 °F 29.8 in WNW 0.9 mph 2 mph 65% 0 in 0 W/m2
00:22 52 °F 40.6 °F 29.8 in Calm   1 mph 65% 0 in 0 W/m2
00:27 52 °F 40.6 °F 29.8 in Calm   2 mph 65% 0 in 0 W/m2
00:32 51.8 °F 40.5 °F 29.8 in Calm     65% 0 in 0 W/m2
00:37 51.6 °F 40.3 °F 29.8 in Calm     65% 0 in 0 W/m2
00:42 51.6 °F 40.6 °F 29.8 in Calm   1 mph 66% 0 in 0 W/m2
00:47 51.4 °F 40.5 °F 29.8 in Calm     66% 0 in 0 W/m2
00:52 51.3 °F 40.3 °F 29.8 in Calm     66% 0 in 0 W/m2
00:57 51.1 °F 40.5 °F 29.8 in Calm     67% 0 in 0 W/m2
01:02 50.7 °F 40.1 °F 29.8 in Calm     67% 0 in 0 W/m2
01:07 50.5 °F 39.9 °F 29.8 in Calm     67% 0 in 0 W/m2
01:12 50.2 °F 39.6 °F 29.8 in Calm     67% 0 in 0 W/m2
01:17 49.8 °F 39.7 °F 29.8 in Calm     68% 0 in 0 W/m2
01:22 49.6 °F 39.6 °F 29.8 in Calm     68% 0 in 0 W/m2
01:27 49.6 °F 39.9 °F 29.8 in Calm     69% 0 in 0 W/m2
01:32 49.5 °F 39.7 °F 29.8 in Calm     69% 0 in 0 W/m2
01:37 49.5 °F 40.1 °F 29.8 in Calm     70% 0 in 0 W/m2
01:42 49.3 °F 40.3 °F 29.8 in Calm     71% 0 in 0 W/m2
01:47 49.3 °F 40.3 °F 29.8 in Calm     71% 0 in 0 W/m2
01:52 48.9 °F 39.9 °F 29.8 in Calm     71% 0 in 0 W/m2
01:57 48.7 °F 40.1 °F 29.8 in Calm     72% 0 in 0 W/m2
02:02 48.6 °F 39.9 °F 29.8 in Calm   1 mph 72% 0 in 0 W/m2
02:07 48.4 °F 40.1 °F 29.8 in Calm     73% 0 in 0 W/m2
02:12 48 °F 39.7 °F 29.8 in WSW 0.9 mph 2 mph 73% 0 in 0 W/m2
02:17 48.2 °F 39.9 °F 29.8 in WSW 0.9 mph 2 mph 73% 0 in 0 W/m2
02:22 48.4 °F 40.1 °F 29.8 in Calm   1 mph 73% 0 in 0 W/m2
02:27 48.2 °F 40.3 °F 29.8 in Calm     74% 0 in 0 W/m2
02:32 47.8 °F 39.9 °F 29.8 in Calm   1 mph 74% 0 in 0 W/m2
02:37 47.7 °F 40.1 °F 29.8 in Calm     75% 0 in 0 W/m2
02:42 47.5 °F 39.9 °F 29.8 in Calm     75% 0 in 0 W/m2
02:47 47.3 °F 40.1 °F 29.8 in Calm     76% 0 in 0 W/m2
02:52 47.1 °F 39.9 °F 29.8 in Calm     76% 0 in 0 W/m2
02:57 46.9 °F 39.7 °F 29.8 in Calm     76% 0 in 0 W/m2
03:02 46.6 °F 39.7 °F 29.8 in Calm     77% 0 in 0 W/m2
03:07 46.4 °F 39.9 °F 29.8 in Calm     78% 0 in 0 W/m2
03:12 46.2 °F 39.7 °F 29.8 in Calm     78% 0 in 0 W/m2
03:17 46 °F 39.9 °F 29.8 in Calm   2 mph 79% 0 in 0 W/m2
03:22 45.9 °F 39.7 °F 29.8 in Calm   1 mph 79% 0 in 0 W/m2
03:27 45.7 °F 39.6 °F 29.8 in Calm     79% 0 in 0 W/m2
03:32 45.7 °F 39.9 °F 29.8 in WSW 0.9 mph 2 mph 80% 0 in 0 W/m2
03:37 45.7 °F 39.9 °F 29.8 in Calm   1 mph 80% 0 in 0 W/m2
03:42 45.7 °F 39.9 °F 29.8 in Calm   2 mph 80% 0 in 0 W/m2
03:47 45.9 °F 40.1 °F 29.8 in Calm     80% 0 in 0 W/m2
03:52 45.7 °F 39.9 °F 29.8 in WSW 0.9 mph 2 mph 80% 0 in 0 W/m2
03:58 45.7 °F 39.9 °F 29.8 in Calm     80% 0 in 0 W/m2
04:03 45.7 °F 39.9 °F 29.8 in Calm   1 mph 80% 0 in 0 W/m2
04:08 45.7 °F 39.9 °F 29.8 in Calm   1 mph 80% 0 in 0 W/m2
04:13 45.7 °F 39.9 °F 29.8 in WSW 0.9 mph 2 mph 80% 0 in 0 W/m2
04:18 45.7 °F 39.9 °F 29.8 in Calm   1 mph 80% 0 in 0 W/m2
04:23 45.7 °F 39.9 °F 29.8 in Calm     80% 0 in 0 W/m2
04:28 45.5 °F 39.7 °F 29.8 in Calm     80% 0 in 0 W/m2
04:33 45.3 °F 39.9 °F 29.8 in Calm     81% 0 in 0 W/m2
04:38 45.3 °F 39.9 °F 29.8 in Calm   1 mph 81% 0 in 0 W/m2
04:43 45.1 °F 39.7 °F 29.8 in Calm     81% 0 in 0 W/m2
04:48 45.1 °F 39.7 °F 29.8 in Calm     81% 0 in 0 W/m2
04:53 45.1 °F 39.7 °F 29.8 in Calm     81% 0 in 0 W/m2
04:58 45 °F 39.6 °F 29.8 in Calm     81% 0 in 0 W/m2
05:03 44.8 °F 39.6 °F 29.8 in Calm     82% 0 in 0 W/m2
05:08 44.6 °F 39.4 °F 29.8 in Calm   1 mph 82% 0 in 0 W/m2
05:13 44.4 °F 39.6 °F 29.8 in Calm     83% 0 in 0 W/m2
05:18 44.2 °F 39.4 °F 29.8 in Calm   1 mph 83% 0 in 0 W/m2
05:23 44.2 °F 39.4 °F 29.8 in Calm     83% 0 in 0 W/m2
05:28 44.1 °F 39.2 °F 29.8 in Calm   1 mph 83% 0 in 0 W/m2
05:34 43.9 °F 39 °F 29.8 in Calm   1 mph 83% 0 in 0 W/m2
05:39 43.5 °F 38.7 °F 29.8 in Calm     83% 0 in 0 W/m2
05:44 43.3 °F 38.8 °F 29.8 in Calm   1 mph 84% 0 in 0 W/m2
05:49 43.2 °F 38.7 °F 29.8 in Calm     84% 0 in 0 W/m2
05:54 43.2 °F 39 °F 29.8 in Calm     85% 0 in 0 W/m2
05:59 43 °F 38.8 °F 29.8 in Calm     85% 0 in 0 W/m2
06:04 42.8 °F 38.7 °F 29.8 in Calm     85% 0 in 0 W/m2
06:09 42.6 °F 38.5 °F 29.8 in Calm     85% 0 in 0 W/m2
06:14 42.4 °F 38.5 °F 29.8 in Calm     86% 0 in 0 W/m2
06:19 42.4 °F 38.5 °F 29.8 in Calm     86% 0 in 0 W/m2
06:24 42.3 °F 38.7 °F 29.8 in Calm     87% 0 in 5 W/m2
06:29 42.3 °F 38.7 °F 29.8 in Calm     87% 0 in 7 W/m2
06:34 42.3 °F 38.7 °F 29.8 in Calm   1 mph 87% 0 in 11 W/m2
06:39 42.1 °F 38.5 °F 29.8 in Calm     87% 0 in 12 W/m2
06:44 42.1 °F 38.8 °F 29.8 in Calm   1 mph 88% 0 in 14 W/m2
06:49 42.1 °F 38.8 °F 29.8 in Calm     88% 0 in 16 W/m2
06:54 42.1 °F 38.8 °F 29.8 in Calm     88% 0 in 19 W/m2
06:59 42.3 °F 39 °F 29.8 in Calm     88% 0 in 21 W/m2
07:04 42.3 °F 39 °F 29.8 in Calm     88% 0 in 23 W/m2
07:09 42.4 °F 39.2 °F 29.8 in Calm     88% 0 in 25 W/m2
07:15 42.6 °F 39.4 °F 29.8 in Calm     88% 0 in 26 W/m2
07:20 43 °F 39.7 °F 29.8 in Calm     88% 0 in 28 W/m2
07:25 43.2 °F 39.6 °F 29.8 in Calm     87% 0 in 30 W/m2
07:30 43.3 °F 39.7 °F 29.8 in Calm     87% 0 in 32 W/m2
07:35 43.5 °F 39.9 °F 29.8 in Calm     87% 0 in 37 W/m2
07:40 43.9 °F 39.9 °F 29.8 in Calm     86% 0 in 53 W/m2
07:45 43.9 °F 39.9 °F 29.8 in Calm     86% 0 in 44 W/m2
07:50 44.1 °F 40.1 °F 29.8 in Calm     86% 0 in 44 W/m2
07:55 44.4 °F 40.5 °F 29.8 in Calm     86% 0 in 102 W/m2
08:00 45 °F 40.6 °F 29.8 in Calm     85% 0 in 114 W/m2
08:05 45.7 °F 41.4 °F 29.8 in Calm     85% 0 in 216 W/m2
08:10 46.4 °F 41.9 °F 29.8 in Calm     84% 0 in 234 W/m2
08:15 47.8 °F 43 °F 29.8 in Calm     83% 0 in 246 W/m2
08:20 49.6 °F 44.1 °F 29.8 in Calm   2 mph 81% 0 in 264 W/m2
08:25 51.1 °F 43.7 °F 29.8 in Calm   1 mph 76% 0 in 274 W/m2
08:30 51.8 °F 43.7 °F 29.8 in Calm   1 mph 74% 0 in 292 W/m2
08:35 52.2 °F 43.7 °F 29.8 in Calm   1 mph 73% 0 in 304 W/m2
08:40 52.5 °F 43.7 °F 29.8 in NE 0.9 mph 1 mph 72% 0 in 322 W/m2
08:45 53.1 °F 43.9 °F 29.8 in Calm     71% 0 in 336 W/m2
08:50 53.4 °F 44.2 °F 29.8 in Calm     71% 0 in 348 W/m2
08:55 53.8 °F 44.6 °F 29.8 in Calm     71% 0 in 338 W/m2
09:00 54.1 °F 44.2 °F 29.8 in NE 0.9 mph 1 mph 69% 0 in 350 W/m2
09:06 54.5 °F 44.2 °F 29.8 in NE 0.9 mph 1 mph 68% 0 in 383 W/m2
Juneau County Weather
Compliments of Weather Underground - 2 mb